sensor_id;sensor_type;location;lat;lon;timestamp;temperature;humidity
13488;DHT22;6816;48.506;9.050;2022-09-09T00:05:14;15.00;96.20
13488;DHT22;6816;48.506;9.050;2022-09-09T00:08:21;15.00;96.50
13488;DHT22;6816;48.506;9.050;2022-09-09T00:11:29;14.90;96.60
13488;DHT22;6816;48.506;9.050;2022-09-09T00:18:07;14.90;97.00
13488;DHT22;6816;48.506;9.050;2022-09-09T00:21:13;14.90;97.30
13488;DHT22;6816;48.506;9.050;2022-09-09T00:24:26;14.90;97.40
13488;DHT22;6816;48.506;9.050;2022-09-09T00:27:40;14.90;97.50
13488;DHT22;6816;48.506;9.050;2022-09-09T00:30:42;14.90;97.60
13488;DHT22;6816;48.506;9.050;2022-09-09T00:33:43;14.90;97.80
13488;DHT22;6816;48.506;9.050;2022-09-09T00:36:44;15.00;97.90
13488;DHT22;6816;48.506;9.050;2022-09-09T00:39:46;15.00;97.90
13488;DHT22;6816;48.506;9.050;2022-09-09T00:56:13;14.90;97.50
13488;DHT22;6816;48.506;9.050;2022-09-09T01:06:29;14.80;97.70
13488;DHT22;6816;48.506;9.050;2022-09-09T01:09:55;14.80;98.00
13488;DHT22;6816;48.506;9.050;2022-09-09T01:12:58;14.80;97.70
13488;DHT22;6816;48.506;9.050;2022-09-09T01:16:04;14.80;98.20
13488;DHT22;6816;48.506;9.050;2022-09-09T01:19:07;14.80;98.10
13488;DHT22;6816;48.506;9.050;2022-09-09T01:29:16;14.70;97.70
13488;DHT22;6816;48.506;9.050;2022-09-09T01:32:42;14.70;97.80
13488;DHT22;6816;48.506;9.050;2022-09-09T01:39:09;14.60;97.70
13488;DHT22;6816;48.506;9.050;2022-09-09T01:42:14;14.60;98.50
13488;DHT22;6816;48.506;9.050;2022-09-09T01:45:15;14.60;98.00
13488;DHT22;6816;48.506;9.050;2022-09-09T01:48:17;14.50;98.10
13488;DHT22;6816;48.506;9.050;2022-09-09T01:51:18;14.50;98.10
13488;DHT22;6816;48.506;9.050;2022-09-09T01:54:20;14.50;98.00
13488;DHT22;6816;48.506;9.050;2022-09-09T01:57:29;14.40;97.90
13488;DHT22;6816;48.506;9.050;2022-09-09T02:00:34;14.40;97.70
13488;DHT22;6816;48.506;9.050;2022-09-09T02:03:37;14.40;98.00
13488;DHT22;6816;48.506;9.050;2022-09-09T02:06:38;14.30;98.20
13488;DHT22;6816;48.506;9.050;2022-09-09T02:09:41;14.40;98.30
13488;DHT22;6816;48.506;9.050;2022-09-09T02:12:53;14.30;98.40
13488;DHT22;6816;48.506;9.050;2022-09-09T02:16:00;14.30;98.60
13488;DHT22;6816;48.506;9.050;2022-09-09T02:19:31;14.30;98.90
13488;DHT22;6816;48.506;9.050;2022-09-09T02:22:32;14.30;98.80
13488;DHT22;6816;48.506;9.050;2022-09-09T02:25:36;14.40;99.10
13488;DHT22;6816;48.506;9.050;2022-09-09T02:28:38;14.40;99.10
13488;DHT22;6816;48.506;9.050;2022-09-09T02:31:41;14.40;99.20
13488;DHT22;6816;48.506;9.050;2022-09-09T02:34:50;14.50;99.30
13488;DHT22;6816;48.506;9.050;2022-09-09T02:37:54;14.50;99.40
13488;DHT22;6816;48.506;9.050;2022-09-09T02:40:57;14.40;99.40
13488;DHT22;6816;48.506;9.050;2022-09-09T02:43:58;14.40;99.50
13488;DHT22;6816;48.506;9.050;2022-09-09T02:47:25;14.50;99.60
13488;DHT22;6816;48.506;9.050;2022-09-09T02:50:33;14.50;99.40
13488;DHT22;6816;48.506;9.050;2022-09-09T02:56:53;14.60;99.60
13488;DHT22;6816;48.506;9.050;2022-09-09T02:59:57;14.60;99.60
13488;DHT22;6816;48.506;9.050;2022-09-09T03:02:59;14.60;99.70
13488;DHT22;6816;48.506;9.050;2022-09-09T03:05:59;14.60;99.80
13488;DHT22;6816;48.506;9.050;2022-09-09T03:09:00;14.70;99.80
13488;DHT22;6816;48.506;9.050;2022-09-09T03:12:02;14.70;99.80
13488;DHT22;6816;48.506;9.050;2022-09-09T03:15:05;14.70;99.90
13488;DHT22;6816;48.506;9.050;2022-09-09T03:18:06;14.70;99.90
13488;DHT22;6816;48.506;9.050;2022-09-09T03:21:07;14.70;99.90
13488;DHT22;6816;48.506;9.050;2022-09-09T03:24:07;14.70;99.90
13488;DHT22;6816;48.506;9.050;2022-09-09T03:27:08;14.70;99.90
13488;DHT22;6816;48.506;9.050;2022-09-09T03:30:09;14.80;99.90
13488;DHT22;6816;48.506;9.050;2022-09-09T03:33:10;14.80;99.90
13488;DHT22;6816;48.506;9.050;2022-09-09T03:36:10;14.90;99.90
13488;DHT22;6816;48.506;9.050;2022-09-09T03:39:11;14.90;99.90
13488;DHT22;6816;48.506;9.050;2022-09-09T03:42:13;14.90;99.90
13488;DHT22;6816;48.506;9.050;2022-09-09T03:45:14;15.00;99.90
13488;DHT22;6816;48.506;9.050;2022-09-09T03:48:19;15.00;99.90
13488;DHT22;6816;48.506;9.050;2022-09-09T03:51:20;15.00;99.90
13488;DHT22;6816;48.506;9.050;2022-09-09T03:54:22;15.10;99.90
13488;DHT22;6816;48.506;9.050;2022-09-09T03:57:22;15.20;99.90
13488;DHT22;6816;48.506;9.050;2022-09-09T04:00:23;15.10;99.90
13488;DHT22;6816;48.506;9.050;2022-09-09T04:03:25;15.10;99.80
13488;DHT22;6816;48.506;9.050;2022-09-09T04:06:26;15.10;99.70
13488;DHT22;6816;48.506;9.050;2022-09-09T04:09:26;15.10;99.60
13488;DHT22;6816;48.506;9.050;2022-09-09T04:12:27;15.10;99.50
13488;DHT22;6816;48.506;9.050;2022-09-09T04:15:27;15.10;99.60
13488;DHT22;6816;48.506;9.050;2022-09-09T04:18:29;15.20;99.80
13488;DHT22;6816;48.506;9.050;2022-09-09T04:21:30;15.00;99.80
13488;DHT22;6816;48.506;9.050;2022-09-09T04:24:31;15.10;99.90
13488;DHT22;6816;48.506;9.050;2022-09-09T04:27:32;15.10;99.90
13488;DHT22;6816;48.506;9.050;2022-09-09T04:30:32;15.10;99.90
13488;DHT22;6816;48.506;9.050;2022-09-09T04:33:35;15.10;99.90
13488;DHT22;6816;48.506;9.050;2022-09-09T04:36:36;15.20;99.90
13488;DHT22;6816;48.506;9.050;2022-09-09T04:39:36;15.20;99.90
13488;DHT22;6816;48.506;9.050;2022-09-09T04:42:37;15.20;99.90
13488;DHT22;6816;48.506;9.050;2022-09-09T04:45:39;15.30;99.90
13488;DHT22;6816;48.506;9.050;2022-09-09T04:48:40;15.30;99.90
13488;DHT22;6816;48.506;9.050;2022-09-09T04:51:44;15.30;99.90
13488;DHT22;6816;48.506;9.050;2022-09-09T04:54:44;15.30;99.80
13488;DHT22;6816;48.506;9.050;2022-09-09T04:57:46;15.30;99.90
13488;DHT22;6816;48.506;9.050;2022-09-09T05:00:46;15.30;99.90
13488;DHT22;6816;48.506;9.050;2022-09-09T05:03:47;15.30;99.80
13488;DHT22;6816;48.506;9.050;2022-09-09T05:06:48;15.30;99.80
13488;DHT22;6816;48.506;9.050;2022-09-09T05:09:49;15.40;99.80
13488;DHT22;6816;48.506;9.050;2022-09-09T05:12:55;15.30;99.90
13488;DHT22;6816;48.506;9.050;2022-09-09T05:15:56;15.30;99.70
13488;DHT22;6816;48.506;9.050;2022-09-09T05:18:57;15.30;99.90
13488;DHT22;6816;48.506;9.050;2022-09-09T05:21:59;15.30;99.90
13488;DHT22;6816;48.506;9.050;2022-09-09T05:25:01;15.40;99.90
13488;DHT22;6816;48.506;9.050;2022-09-09T05:28:02;15.40;99.90
13488;DHT22;6816;48.506;9.050;2022-09-09T05:31:04;15.40;99.90
13488;DHT22;6816;48.506;9.050;2022-09-09T05:34:05;15.40;99.90
13488;DHT22;6816;48.506;9.050;2022-09-09T05:37:06;15.50;99.90
13488;DHT22;6816;48.506;9.050;2022-09-09T05:40:08;15.50;99.90
13488;DHT22;6816;48.506;9.050;2022-09-09T05:43:09;15.60;99.90
13488;DHT22;6816;48.506;9.050;2022-09-09T05:46:18;15.70;99.90
13488;DHT22;6816;48.506;9.050;2022-09-09T05:49:19;15.70;99.90
13488;DHT22;6816;48.506;9.050;2022-09-09T05:52:19;15.70;99.90
13488;DHT22;6816;48.506;9.050;2022-09-09T05:55:20;15.70;99.90
13488;DHT22;6816;48.506;9.050;2022-09-09T05:58:21;15.80;99.90
13488;DHT22;6816;48.506;9.050;2022-09-09T06:01:25;15.90;99.90
13488;DHT22;6816;48.506;9.050;2022-09-09T06:04:26;15.90;99.90
13488;DHT22;6816;48.506;9.050;2022-09-09T06:07:27;16.00;99.90
13488;DHT22;6816;48.506;9.050;2022-09-09T06:10:28;16.10;99.90
13488;DHT22;6816;48.506;9.050;2022-09-09T06:13:29;16.10;99.90
13488;DHT22;6816;48.506;9.050;2022-09-09T06:16:31;16.20;99.90
13488;DHT22;6816;48.506;9.050;2022-09-09T06:19:34;16.30;99.90
13488;DHT22;6816;48.506;9.050;2022-09-09T06:22:35;16.40;99.90
13488;DHT22;6816;48.506;9.050;2022-09-09T06:25:36;16.40;99.90
13488;DHT22;6816;48.506;9.050;2022-09-09T06:28:36;16.50;99.90
13488;DHT22;6816;48.506;9.050;2022-09-09T06:31:37;16.60;99.90
13488;DHT22;6816;48.506;9.050;2022-09-09T06:34:38;16.80;99.90
13488;DHT22;6816;48.506;9.050;2022-09-09T06:37:38;16.90;99.90
13488;DHT22;6816;48.506;9.050;2022-09-09T06:40:39;17.00;99.90
13488;DHT22;6816;48.506;9.050;2022-09-09T06:43:40;17.10;99.90
13488;DHT22;6816;48.506;9.050;2022-09-09T06:46:40;17.20;99.90
13488;DHT22;6816;48.506;9.050;2022-09-09T06:49:41;17.30;99.90
13488;DHT22;6816;48.506;9.050;2022-09-09T06:52:46;17.50;99.90
13488;DHT22;6816;48.506;9.050;2022-09-09T06:55:47;17.60;99.90
13488;DHT22;6816;48.506;9.050;2022-09-09T06:58:49;17.70;99.90
13488;DHT22;6816;48.506;9.050;2022-09-09T07:01:50;17.80;99.90
13488;DHT22;6816;48.506;9.050;2022-09-09T07:04:52;17.90;99.90
13488;DHT22;6816;48.506;9.050;2022-09-09T07:07:52;18.00;99.90
13488;DHT22;6816;48.506;9.050;2022-09-09T07:10:53;18.20;99.90
13488;DHT22;6816;48.506;9.050;2022-09-09T07:13:55;18.30;99.90
13488;DHT22;6816;48.506;9.050;2022-09-09T07:16:57;18.30;99.90
13488;DHT22;6816;48.506;9.050;2022-09-09T07:19:57;18.40;99.90
13488;DHT22;6816;48.506;9.050;2022-09-09T07:22:58;18.50;99.90
13488;DHT22;6816;48.506;9.050;2022-09-09T07:25:59;18.60;99.90
13488;DHT22;6816;48.506;9.050;2022-09-09T07:29:00;18.70;99.90
13488;DHT22;6816;48.506;9.050;2022-09-09T07:32:01;18.80;99.70
13488;DHT22;6816;48.506;9.050;2022-09-09T07:35:03;18.90;99.70
13488;DHT22;6816;48.506;9.050;2022-09-09T07:38:04;18.90;99.50
13488;DHT22;6816;48.506;9.050;2022-09-09T07:41:09;19.00;99.50
13488;DHT22;6816;48.506;9.050;2022-09-09T07:44:23;19.10;99.40
13488;DHT22;6816;48.506;9.050;2022-09-09T07:47:25;19.10;98.90
13488;DHT22;6816;48.506;9.050;2022-09-09T07:50:26;19.20;99.40
13488;DHT22;6816;48.506;9.050;2022-09-09T07:53:26;19.30;99.40
13488;DHT22;6816;48.506;9.050;2022-09-09T07:56:28;19.30;99.40
13488;DHT22;6816;48.506;9.050;2022-09-09T07:59:29;19.40;99.40
13488;DHT22;6816;48.506;9.050;2022-09-09T08:02:30;19.60;99.60
13488;DHT22;6816;48.506;9.050;2022-09-09T08:05:31;19.70;99.40
13488;DHT22;6816;48.506;9.050;2022-09-09T08:08:32;19.80;99.00
13488;DHT22;6816;48.506;9.050;2022-09-09T08:11:33;19.90;98.60
13488;DHT22;6816;48.506;9.050;2022-09-09T08:14:34;19.90;98.40
13488;DHT22;6816;48.506;9.050;2022-09-09T08:17:35;20.00;98.20
13488;DHT22;6816;48.506;9.050;2022-09-09T08:20:38;20.00;98.10
13488;DHT22;6816;48.506;9.050;2022-09-09T08:23:42;20.10;98.10
13488;DHT22;6816;48.506;9.050;2022-09-09T08:26:46;20.10;97.60
13488;DHT22;6816;48.506;9.050;2022-09-09T08:29:49;20.20;98.00
13488;DHT22;6816;48.506;9.050;2022-09-09T08:32:50;20.30;98.50
13488;DHT22;6816;48.506;9.050;2022-09-09T08:35:51;20.60;98.70
13488;DHT22;6816;48.506;9.050;2022-09-09T08:38:55;20.60;98.60
13488;DHT22;6816;48.506;9.050;2022-09-09T08:48:43;21.00;97.90
13488;DHT22;6816;48.506;9.050;2022-09-09T08:51:37;21.10;96.80
13488;DHT22;6816;48.506;9.050;2022-09-09T08:54:38;21.20;97.70
13488;DHT22;6816;48.506;9.050;2022-09-09T08:57:40;21.30;97.30
13488;DHT22;6816;48.506;9.050;2022-09-09T09:07:35;21.40;94.80
13488;DHT22;6816;48.506;9.050;2022-09-09T09:10:47;21.30;96.10
13488;DHT22;6816;48.506;9.050;2022-09-09T09:14:03;21.40;95.30
13488;DHT22;6816;48.506;9.050;2022-09-09T09:17:12;21.30;95.30
13488;DHT22;6816;48.506;9.050;2022-09-09T09:20:14;21.40;95.50
13488;DHT22;6816;48.506;9.050;2022-09-09T09:23:23;21.50;96.00
13488;DHT22;6816;48.506;9.050;2022-09-09T09:26:31;21.70;95.20
13488;DHT22;6816;48.506;9.050;2022-09-09T09:29:33;21.80;95.20
13488;DHT22;6816;48.506;9.050;2022-09-09T09:32:36;22.00;95.50
13488;DHT22;6816;48.506;9.050;2022-09-09T09:35:38;22.20;95.00
13488;DHT22;6816;48.506;9.050;2022-09-09T09:38:39;22.30;94.80
13488;DHT22;6816;48.506;9.050;2022-09-09T09:41:41;22.40;94.40
13488;DHT22;6816;48.506;9.050;2022-09-09T09:44:43;22.50;94.30
13488;DHT22;6816;48.506;9.050;2022-09-09T09:47:44;22.60;94.00
13488;DHT22;6816;48.506;9.050;2022-09-09T09:51:09;22.70;93.50
13488;DHT22;6816;48.506;9.050;2022-09-09T09:54:18;22.80;91.00
13488;DHT22;6816;48.506;9.050;2022-09-09T09:57:26;22.90;91.00
13488;DHT22;6816;48.506;9.050;2022-09-09T10:00:29;23.00;91.80
13488;DHT22;6816;48.506;9.050;2022-09-09T10:03:32;23.10;92.40
13488;DHT22;6816;48.506;9.050;2022-09-09T10:06:37;23.20;91.50
13488;DHT22;6816;48.506;9.050;2022-09-09T10:09:40;23.20;91.00
13488;DHT22;6816;48.506;9.050;2022-09-09T10:16:30;23.20;86.90
13488;DHT22;6816;48.506;9.050;2022-09-09T10:19:35;23.20;87.80
13488;DHT22;6816;48.506;9.050;2022-09-09T10:22:39;23.20;90.60
13488;DHT22;6816;48.506;9.050;2022-09-09T10:35:56;23.50;87.50
13488;DHT22;6816;48.506;9.050;2022-09-09T10:39:48;23.60;87.30
13488;DHT22;6816;48.506;9.050;2022-09-09T10:42:28;23.70;86.60
13488;DHT22;6816;48.506;9.050;2022-09-09T10:45:39;23.80;86.10
13488;DHT22;6816;48.506;9.050;2022-09-09T10:52:08;23.90;86.80
13488;DHT22;6816;48.506;9.050;2022-09-09T10:58:38;24.10;84.20
13488;DHT22;6816;48.506;9.050;2022-09-09T11:01:57;24.20;82.40
13488;DHT22;6816;48.506;9.050;2022-09-09T11:08:25;24.40;84.20
13488;DHT22;6816;48.506;9.050;2022-09-09T11:12:13;24.60;79.90
13488;DHT22;6816;48.506;9.050;2022-09-09T11:15:39;24.70;82.60
13488;DHT22;6816;48.506;9.050;2022-09-09T11:18:22;24.80;82.50
13488;DHT22;6816;48.506;9.050;2022-09-09T11:21:27;24.80;83.00
13488;DHT22;6816;48.506;9.050;2022-09-09T11:24:54;24.90;81.40
13488;DHT22;6816;48.506;9.050;2022-09-09T11:40:39;24.20;77.10
13488;DHT22;6816;48.506;9.050;2022-09-09T11:43:45;24.10;79.60
13488;DHT22;6816;48.506;9.050;2022-09-09T11:46:49;24.00;77.40
13488;DHT22;6816;48.506;9.050;2022-09-09T11:49:51;24.00;77.60
13488;DHT22;6816;48.506;9.050;2022-09-09T11:56:45;23.90;74.90
13488;DHT22;6816;48.506;9.050;2022-09-09T11:59:50;23.80;74.80
13488;DHT22;6816;48.506;9.050;2022-09-09T12:02:55;23.80;76.20
13488;DHT22;6816;48.506;9.050;2022-09-09T12:05:56;23.80;78.80
13488;DHT22;6816;48.506;9.050;2022-09-09T12:09:06;23.80;78.10
13488;DHT22;6816;48.506;9.050;2022-09-09T12:18:20;23.80;78.10
13488;DHT22;6816;48.506;9.050;2022-09-09T12:21:39;23.80;77.50
13488;DHT22;6816;48.506;9.050;2022-09-09T12:25:07;23.90;75.90
13488;DHT22;6816;48.506;9.050;2022-09-09T12:31:35;24.10;80.60
13488;DHT22;6816;48.506;9.050;2022-09-09T12:34:46;24.20;74.00
13488;DHT22;6816;48.506;9.050;2022-09-09T12:37:56;24.20;76.50
13488;DHT22;6816;48.506;9.050;2022-09-09T12:40:58;24.20;75.20
13488;DHT22;6816;48.506;9.050;2022-09-09T12:44:09;24.20;78.10
13488;DHT22;6816;48.506;9.050;2022-09-09T12:47:10;24.20;75.70
13488;DHT22;6816;48.506;9.050;2022-09-09T12:50:21;24.10;78.00
13488;DHT22;6816;48.506;9.050;2022-09-09T12:53:36;24.10;75.40
13488;DHT22;6816;48.506;9.050;2022-09-09T12:56:37;24.10;75.90
13488;DHT22;6816;48.506;9.050;2022-09-09T12:59:40;24.00;77.00
13488;DHT22;6816;48.506;9.050;2022-09-09T13:02:48;24.00;76.10
13488;DHT22;6816;48.506;9.050;2022-09-09T13:05:51;24.00;74.60
13488;DHT22;6816;48.506;9.050;2022-09-09T13:08:53;24.00;77.60
13488;DHT22;6816;48.506;9.050;2022-09-09T13:11:55;24.10;77.90
13488;DHT22;6816;48.506;9.050;2022-09-09T13:14:58;24.10;77.70
13488;DHT22;6816;48.506;9.050;2022-09-09T13:18:01;24.20;78.10
13488;DHT22;6816;48.506;9.050;2022-09-09T13:21:05;24.30;77.60
13488;DHT22;6816;48.506;9.050;2022-09-09T13:24:57;24.30;77.50
13488;DHT22;6816;48.506;9.050;2022-09-09T13:27:36;24.30;76.40
13488;DHT22;6816;48.506;9.050;2022-09-09T13:30:40;24.30;75.10
13488;DHT22;6816;48.506;9.050;2022-09-09T13:33:43;24.20;76.50
13488;DHT22;6816;48.506;9.050;2022-09-09T13:36:47;24.20;76.60
13488;DHT22;6816;48.506;9.050;2022-09-09T13:39:53;24.20;75.10
13488;DHT22;6816;48.506;9.050;2022-09-09T13:42:56;24.20;75.70
13488;DHT22;6816;48.506;9.050;2022-09-09T13:45:59;24.30;77.40
13488;DHT22;6816;48.506;9.050;2022-09-09T13:49:19;24.40;77.00
13488;DHT22;6816;48.506;9.050;2022-09-09T13:52:20;24.50;73.00
13488;DHT22;6816;48.506;9.050;2022-09-09T13:55:23;24.50;76.80
13488;DHT22;6816;48.506;9.050;2022-09-09T13:58:25;24.60;76.40
13488;DHT22;6816;48.506;9.050;2022-09-09T14:01:26;24.60;75.60
13488;DHT22;6816;48.506;9.050;2022-09-09T14:04:27;24.70;75.90
13488;DHT22;6816;48.506;9.050;2022-09-09T14:07:28;24.70;75.40
13488;DHT22;6816;48.506;9.050;2022-09-09T14:10:29;24.80;75.80
13488;DHT22;6816;48.506;9.050;2022-09-09T14:13:30;24.80;76.00
13488;DHT22;6816;48.506;9.050;2022-09-09T14:16:30;25.00;76.00
13488;DHT22;6816;48.506;9.050;2022-09-09T14:19:31;25.00;75.30
13488;DHT22;6816;48.506;9.050;2022-09-09T14:22:32;25.00;74.20
13488;DHT22;6816;48.506;9.050;2022-09-09T14:25:32;25.00;73.90
13488;DHT22;6816;48.506;9.050;2022-09-09T14:28:35;25.00;74.00
13488;DHT22;6816;48.506;9.050;2022-09-09T14:31:36;25.00;73.50
13488;DHT22;6816;48.506;9.050;2022-09-09T14:34:36;24.90;73.30
13488;DHT22;6816;48.506;9.050;2022-09-09T14:37:38;24.90;73.20
13488;DHT22;6816;48.506;9.050;2022-09-09T14:40:39;24.90;72.90
13488;DHT22;6816;48.506;9.050;2022-09-09T14:43:40;24.90;73.60
13488;DHT22;6816;48.506;9.050;2022-09-09T14:46:41;24.90;72.90
13488;DHT22;6816;48.506;9.050;2022-09-09T14:49:43;24.80;72.60
13488;DHT22;6816;48.506;9.050;2022-09-09T14:52:43;24.90;72.70
13488;DHT22;6816;48.506;9.050;2022-09-09T14:55:44;24.80;73.00
13488;DHT22;6816;48.506;9.050;2022-09-09T14:58:47;24.80;72.40
13488;DHT22;6816;48.506;9.050;2022-09-09T15:01:48;24.80;72.30
13488;DHT22;6816;48.506;9.050;2022-09-09T15:04:49;24.70;72.10
13488;DHT22;6816;48.506;9.050;2022-09-09T15:07:53;24.70;72.00
13488;DHT22;6816;48.506;9.050;2022-09-09T15:11:06;24.70;71.70
13488;DHT22;6816;48.506;9.050;2022-09-09T15:14:10;24.70;67.20
13488;DHT22;6816;48.506;9.050;2022-09-09T15:17:12;24.70;71.50
13488;DHT22;6816;48.506;9.050;2022-09-09T15:20:13;24.70;71.20
13488;DHT22;6816;48.506;9.050;2022-09-09T15:23:14;24.60;71.10
13488;DHT22;6816;48.506;9.050;2022-09-09T15:26:15;24.60;70.50
13488;DHT22;6816;48.506;9.050;2022-09-09T15:29:16;24.60;70.90
13488;DHT22;6816;48.506;9.050;2022-09-09T15:32:17;24.50;70.70
13488;DHT22;6816;48.506;9.050;2022-09-09T15:35:17;24.50;70.70
13488;DHT22;6816;48.506;9.050;2022-09-09T15:38:18;24.40;70.60
13488;DHT22;6816;48.506;9.050;2022-09-09T15:41:21;24.30;70.30
13488;DHT22;6816;48.506;9.050;2022-09-09T15:44:21;24.30;70.60
13488;DHT22;6816;48.506;9.050;2022-09-09T15:47:25;24.20;71.00
13488;DHT22;6816;48.506;9.050;2022-09-09T15:50:27;24.10;71.50
13488;DHT22;6816;48.506;9.050;2022-09-09T15:53:30;24.10;71.70
13488;DHT22;6816;48.506;9.050;2022-09-09T15:56:32;24.00;71.60
13488;DHT22;6816;48.506;9.050;2022-09-09T15:59:33;24.00;71.50
13488;DHT22;6816;48.506;9.050;2022-09-09T16:02:34;23.90;71.50
13488;DHT22;6816;48.506;9.050;2022-09-09T16:05:35;23.90;71.10
13488;DHT22;6816;48.506;9.050;2022-09-09T16:08:38;23.80;70.90
13488;DHT22;6816;48.506;9.050;2022-09-09T16:11:39;23.80;70.60
13488;DHT22;6816;48.506;9.050;2022-09-09T16:14:39;23.70;71.00
13488;DHT22;6816;48.506;9.050;2022-09-09T16:17:41;23.60;71.50
13488;DHT22;6816;48.506;9.050;2022-09-09T16:20:41;23.60;71.20
13488;DHT22;6816;48.506;9.050;2022-09-09T16:23:42;23.60;71.20
13488;DHT22;6816;48.506;9.050;2022-09-09T16:26:46;23.50;71.20
13488;DHT22;6816;48.506;9.050;2022-09-09T16:29:47;23.40;71.00
13488;DHT22;6816;48.506;9.050;2022-09-09T16:32:47;23.40;72.00
13488;DHT22;6816;48.506;9.050;2022-09-09T16:35:49;23.30;71.30
13488;DHT22;6816;48.506;9.050;2022-09-09T16:38:54;23.30;71.40
13488;DHT22;6816;48.506;9.050;2022-09-09T16:41:57;23.20;70.10
13488;DHT22;6816;48.506;9.050;2022-09-09T16:44:58;23.10;71.60
13488;DHT22;6816;48.506;9.050;2022-09-09T16:47:59;23.00;71.90
13488;DHT22;6816;48.506;9.050;2022-09-09T16:51:05;22.90;72.10
13488;DHT22;6816;48.506;9.050;2022-09-09T16:54:08;22.80;72.30
13488;DHT22;6816;48.506;9.050;2022-09-09T16:57:09;22.70;72.40
13488;DHT22;6816;48.506;9.050;2022-09-09T17:00:10;22.60;72.80
13488;DHT22;6816;48.506;9.050;2022-09-09T17:03:14;22.50;73.00
13488;DHT22;6816;48.506;9.050;2022-09-09T17:06:18;22.40;72.30
13488;DHT22;6816;48.506;9.050;2022-09-09T17:09:19;22.40;73.10
13488;DHT22;6816;48.506;9.050;2022-09-09T17:12:20;22.30;74.10
13488;DHT22;6816;48.506;9.050;2022-09-09T17:15:21;22.20;74.20
13488;DHT22;6816;48.506;9.050;2022-09-09T17:18:26;22.10;74.50
13488;DHT22;6816;48.506;9.050;2022-09-09T17:21:29;22.10;74.10
13488;DHT22;6816;48.506;9.050;2022-09-09T17:24:30;22.00;75.20
13488;DHT22;6816;48.506;9.050;2022-09-09T17:27:30;22.00;75.20
13488;DHT22;6816;48.506;9.050;2022-09-09T17:30:36;21.90;75.30
13488;DHT22;6816;48.506;9.050;2022-09-09T17:33:38;21.80;74.50
13488;DHT22;6816;48.506;9.050;2022-09-09T17:36:39;21.70;75.60
13488;DHT22;6816;48.506;9.050;2022-09-09T17:39:40;21.60;75.80
13488;DHT22;6816;48.506;9.050;2022-09-09T17:42:40;21.60;76.20
13488;DHT22;6816;48.506;9.050;2022-09-09T17:45:41;21.40;76.40
13488;DHT22;6816;48.506;9.050;2022-09-09T17:48:43;21.30;76.60
13488;DHT22;6816;48.506;9.050;2022-09-09T17:51:45;21.20;76.60
13488;DHT22;6816;48.506;9.050;2022-09-09T17:54:46;21.10;76.90
13488;DHT22;6816;48.506;9.050;2022-09-09T17:57:46;21.00;77.10
13488;DHT22;6816;48.506;9.050;2022-09-09T18:00:47;20.90;77.50
13488;DHT22;6816;48.506;9.050;2022-09-09T18:03:50;20.80;77.60
13488;DHT22;6816;48.506;9.050;2022-09-09T18:06:52;20.70;77.70
13488;DHT22;6816;48.506;9.050;2022-09-09T18:09:53;20.60;77.90
13488;DHT22;6816;48.506;9.050;2022-09-09T18:12:55;20.50;78.10
13488;DHT22;6816;48.506;9.050;2022-09-09T18:15:59;20.40;78.20
13488;DHT22;6816;48.506;9.050;2022-09-09T18:19:00;20.40;78.60
13488;DHT22;6816;48.506;9.050;2022-09-09T18:22:03;20.30;78.80
13488;DHT22;6816;48.506;9.050;2022-09-09T18:25:04;20.30;79.00
13488;DHT22;6816;48.506;9.050;2022-09-09T18:28:05;20.30;80.00
13488;DHT22;6816;48.506;9.050;2022-09-09T18:31:08;20.20;79.40
13488;DHT22;6816;48.506;9.050;2022-09-09T18:34:11;20.20;79.30
13488;DHT22;6816;48.506;9.050;2022-09-09T18:37:12;20.20;79.60
13488;DHT22;6816;48.506;9.050;2022-09-09T18:40:14;20.10;79.70
13488;DHT22;6816;48.506;9.050;2022-09-09T18:43:14;20.10;79.80
13488;DHT22;6816;48.506;9.050;2022-09-09T18:46:17;20.10;80.70
13488;DHT22;6816;48.506;9.050;2022-09-09T18:49:20;20.00;80.70
13488;DHT22;6816;48.506;9.050;2022-09-09T18:52:21;20.10;80.00
13488;DHT22;6816;48.506;9.050;2022-09-09T18:55:21;20.00;80.10
13488;DHT22;6816;48.506;9.050;2022-09-09T18:58:22;20.00;80.00
13488;DHT22;6816;48.506;9.050;2022-09-09T19:01:25;19.90;80.00
13488;DHT22;6816;48.506;9.050;2022-09-09T19:04:26;19.90;80.10
13488;DHT22;6816;48.506;9.050;2022-09-09T19:07:27;20.00;80.30
13488;DHT22;6816;48.506;9.050;2022-09-09T19:10:27;19.90;80.30
13488;DHT22;6816;48.506;9.050;2022-09-09T19:13:31;19.90;80.40
13488;DHT22;6816;48.506;9.050;2022-09-09T19:16:33;19.90;80.40
13488;DHT22;6816;48.506;9.050;2022-09-09T19:19:34;19.90;80.30
13488;DHT22;6816;48.506;9.050;2022-09-09T19:22:34;19.80;80.20
13488;DHT22;6816;48.506;9.050;2022-09-09T19:25:35;19.80;80.20
13488;DHT22;6816;48.506;9.050;2022-09-09T19:28:39;19.70;80.40
13488;DHT22;6816;48.506;9.050;2022-09-09T19:31:40;19.70;80.50
13488;DHT22;6816;48.506;9.050;2022-09-09T19:34:41;19.50;80.40
13488;DHT22;6816;48.506;9.050;2022-09-09T19:37:43;19.50;80.50
13488;DHT22;6816;48.506;9.050;2022-09-09T19:40:43;19.30;80.50
13488;DHT22;6816;48.506;9.050;2022-09-09T19:43:44;19.30;80.80
13488;DHT22;6816;48.506;9.050;2022-09-09T19:46:45;19.20;81.00
13488;DHT22;6816;48.506;9.050;2022-09-09T19:49:46;19.20;81.20
13488;DHT22;6816;48.506;9.050;2022-09-09T19:52:47;19.10;81.40
13488;DHT22;6816;48.506;9.050;2022-09-09T19:55:48;19.00;82.30
13488;DHT22;6816;48.506;9.050;2022-09-09T19:58:53;18.90;81.70
13488;DHT22;6816;48.506;9.050;2022-09-09T20:01:54;18.90;82.00
13488;DHT22;6816;48.506;9.050;2022-09-09T20:04:58;18.80;82.20
13488;DHT22;6816;48.506;9.050;2022-09-09T20:07:59;18.80;82.30
13488;DHT22;6816;48.506;9.050;2022-09-09T20:10:59;18.70;82.50
13488;DHT22;6816;48.506;9.050;2022-09-09T20:14:01;18.60;82.60
13488;DHT22;6816;48.506;9.050;2022-09-09T20:17:01;18.50;82.70
13488;DHT22;6816;48.506;9.050;2022-09-09T20:20:02;18.50;83.90
13488;DHT22;6816;48.506;9.050;2022-09-09T20:23:03;18.40;83.20
13488;DHT22;6816;48.506;9.050;2022-09-09T20:26:07;18.30;83.40
13488;DHT22;6816;48.506;9.050;2022-09-09T20:29:11;18.30;83.20
13488;DHT22;6816;48.506;9.050;2022-09-09T20:32:13;18.20;83.70
13488;DHT22;6816;48.506;9.050;2022-09-09T20:35:13;18.20;84.20
13488;DHT22;6816;48.506;9.050;2022-09-09T20:38:14;18.10;84.50
13488;DHT22;6816;48.506;9.050;2022-09-09T20:41:16;18.00;84.70
13488;DHT22;6816;48.506;9.050;2022-09-09T20:44:19;18.00;84.90
13488;DHT22;6816;48.506;9.050;2022-09-09T20:47:22;18.00;85.00
13488;DHT22;6816;48.506;9.050;2022-09-09T20:50:23;17.90;85.20
13488;DHT22;6816;48.506;9.050;2022-09-09T20:53:23;17.80;85.40
13488;DHT22;6816;48.506;9.050;2022-09-09T20:56:25;17.80;86.50
13488;DHT22;6816;48.506;9.050;2022-09-09T20:59:28;17.80;86.00
13488;DHT22;6816;48.506;9.050;2022-09-09T21:02:29;17.70;86.30
13488;DHT22;6816;48.506;9.050;2022-09-09T21:05:29;17.70;86.50
13488;DHT22;6816;48.506;9.050;2022-09-09T21:08:30;17.70;86.60
13488;DHT22;6816;48.506;9.050;2022-09-09T21:11:31;17.60;86.80
13488;DHT22;6816;48.506;9.050;2022-09-09T21:14:32;17.60;86.90
13488;DHT22;6816;48.506;9.050;2022-09-09T21:17:33;17.60;87.20
13488;DHT22;6816;48.506;9.050;2022-09-09T21:20:33;17.60;87.40